createdAt,value
2022-08-07T00:04:01.026Z,13.81
2022-08-07T00:09:16.930Z,15.17
2022-08-07T00:14:31.658Z,16.21
2022-08-07T00:20:02.539Z,16.85
2022-08-07T00:25:00.573Z,15.51
2022-08-07T00:30:21.721Z,14.20
2022-08-07T00:35:31.757Z,13.31
2022-08-07T00:40:40.834Z,13.39
2022-08-07T00:45:46.598Z,15.39
2022-08-07T00:50:51.750Z,16.61
2022-08-07T00:56:02.185Z,17.22
2022-08-07T01:01:08.478Z,16.77
2022-08-07T01:06:13.849Z,14.79
2022-08-07T01:12:04.580Z,13.44
2022-08-07T01:16:49.569Z,13.21
2022-08-07T01:21:55.944Z,14.32
2022-08-07T01:27:02.293Z,14.69
2022-08-07T01:32:12.537Z,14.94
2022-08-07T01:37:19.070Z,15.46
2022-08-07T01:42:39.848Z,16.17
2022-08-07T01:48:18.893Z,16.77
2022-08-07T01:53:21.697Z,15.94
2022-08-07T01:58:49.110Z,14.18
2022-08-07T02:04:28.463Z,13.10
2022-08-07T02:09:52.745Z,13.10
2022-08-07T02:15:01.101Z,14.30
2022-08-07T02:20:17.197Z,15.13
2022-08-07T02:26:10.429Z,15.64
2022-08-07T02:30:52.820Z,15.92
2022-08-07T02:36:29.456Z,15.99
2022-08-07T02:41:25.654Z,15.90
2022-08-07T02:46:46.702Z,15.94
2022-08-07T02:52:02.009Z,16.03
2022-08-07T02:57:15.266Z,16.10
2022-08-07T03:02:20.825Z,15.73
2022-08-07T03:07:58.981Z,14.13
2022-08-07T03:12:53.488Z,12.90
2022-08-07T03:18:00.328Z,12.76
2022-08-07T03:23:05.858Z,13.80
2022-08-07T03:28:37.996Z,14.62
2022-08-07T03:33:47.374Z,15.31
2022-08-07T03:38:56.428Z,15.79
2022-08-07T03:44:02.453Z,15.95
2022-08-07T03:49:10.144Z,15.96
2022-08-07T03:54:36.461Z,15.42
2022-08-07T03:59:46.579Z,13.88
2022-08-07T04:05:12.869Z,12.91
2022-08-07T04:10:19.463Z,12.91
2022-08-07T04:15:24.095Z,14.09
2022-08-07T04:20:29.071Z,14.92
2022-08-07T04:25:40.986Z,15.17
2022-08-07T04:30:56.791Z,15.49
2022-08-07T04:36:02.180Z,14.23
2022-08-07T04:41:18.226Z,14.28
2022-08-07T04:46:35.868Z,15.48
2022-08-07T04:52:03.780Z,15.74
2022-08-07T04:58:11.707Z,16.28
2022-08-07T05:04:06.724Z,15.63
2022-08-07T05:09:02.344Z,14.75
2022-08-07T05:14:55.529Z,15.72
2022-08-07T05:20:09.455Z,16.68
2022-08-07T05:25:25.637Z,17.43
2022-08-07T05:30:43.927Z,17.62
2022-08-07T05:35:55.134Z,16.44
2022-08-07T05:41:01.917Z,16.91
2022-08-07T05:46:20.345Z,18.28
2022-08-07T05:51:31.421Z,18.59
2022-08-07T05:56:40.791Z,17.75
2022-08-07T06:01:47.137Z,17.48
2022-08-07T06:06:56.701Z,18.87
2022-08-07T06:12:09.198Z,19.88
2022-08-07T06:17:16.879Z,19.11
2022-08-07T06:22:27.130Z,19.08
2022-08-07T06:27:59.657Z,20.43
2022-08-07T06:32:57.195Z,19.83
2022-08-07T06:38:02.098Z,19.26
2022-08-07T06:43:21.669Z,19.58
2022-08-07T06:48:26.722Z,20.73
2022-08-07T06:55:27.153Z,20.37
2022-08-07T07:00:11.415Z,19.92
2022-08-07T07:04:32.923Z,19.82
2022-08-07T07:09:38.894Z,19.87
2022-08-07T07:15:08.578Z,20.08
2022-08-07T07:20:58.219Z,21.46
2022-08-07T07:26:35.417Z,21.29
2022-08-07T07:31:44.490Z,20.83
2022-08-07T07:36:54.233Z,20.70
2022-08-07T07:42:12.969Z,20.59
2022-08-07T07:47:23.900Z,20.83
2022-08-07T07:52:33.402Z,21.13
2022-08-07T07:57:52.281Z,21.28
2022-08-07T08:03:16.423Z,21.27
2022-08-07T08:08:34.372Z,21.12
2022-08-07T08:13:53.340Z,21.36
2022-08-07T08:19:17.260Z,21.47
2022-08-07T08:24:57.165Z,21.66
2022-08-07T08:30:17.374Z,21.73
2022-08-07T08:35:28.804Z,21.61
2022-08-07T08:40:54.595Z,21.82
2022-08-07T08:46:22.083Z,22.41
2022-08-07T08:52:12.580Z,22.73
2022-08-07T08:57:38.941Z,23.01
2022-08-07T09:03:48.031Z,23.20
2022-08-07T09:09:13.388Z,23.55
2022-08-07T09:14:59.994Z,23.58
2022-08-07T09:21:13.824Z,23.82
2022-08-07T09:27:11.988Z,24.00
2022-08-07T09:32:26.695Z,24.46
2022-08-07T09:38:10.400Z,24.69
2022-08-07T09:44:03.565Z,24.73
2022-08-07T09:50:02.459Z,24.67
2022-08-07T09:55:28.923Z,24.25
2022-08-07T10:01:51.246Z,24.41
2022-08-07T10:07:24.168Z,25.46
2022-08-07T10:13:05.870Z,25.73
2022-08-07T10:18:39.995Z,25.29
2022-08-07T10:24:05.311Z,24.94
2022-08-07T10:29:51.731Z,25.26
2022-08-07T10:35:16.617Z,25.74
2022-08-07T10:40:53.213Z,26.07
2022-08-07T10:46:26.616Z,26.51
2022-08-07T10:52:13.497Z,27.03
2022-08-07T10:58:17.629Z,26.77
2022-08-07T11:04:05.425Z,26.34
2022-08-07T11:10:09.345Z,25.85
2022-08-07T11:15:01.229Z,25.55
2022-08-07T11:20:20.181Z,25.48
2022-08-07T11:25:50.015Z,25.76
2022-08-07T11:31:18.490Z,26.07
2022-08-07T11:36:31.240Z,26.15
2022-08-07T11:42:03.351Z,26.19
2022-08-07T11:47:39.099Z,26.33
2022-08-07T11:53:26.073Z,26.34
2022-08-07T11:58:50.795Z,26.44
2022-08-07T12:04:18.038Z,26.42
2022-08-07T12:10:02.156Z,26.00
2022-08-07T12:15:46.714Z,25.74
2022-08-07T12:20:57.012Z,25.37
2022-08-07T12:26:29.054Z,24.98
2022-08-07T12:32:03.753Z,24.68
2022-08-07T12:37:16.909Z,24.57
2022-08-07T12:42:32.069Z,24.53
2022-08-07T12:48:05.048Z,24.53
2022-08-07T12:54:02.794Z,24.16
2022-08-07T12:59:37.084Z,23.87
2022-08-07T13:06:04.610Z,23.82
2022-08-07T13:11:17.902Z,23.73
2022-08-07T13:16:46.871Z,23.71
2022-08-07T13:22:35.327Z,23.80
2022-08-07T13:28:12.864Z,24.02
2022-08-07T13:34:32.661Z,24.35
2022-08-07T13:40:34.846Z,24.76
2022-08-07T13:46:20.838Z,25.50
2022-08-07T13:51:00.119Z,25.96
2022-08-07T13:56:07.465Z,25.74
2022-08-07T14:01:21.927Z,25.45
2022-08-07T14:06:35.148Z,25.24
2022-08-07T14:11:53.281Z,25.05
2022-08-07T14:17:32.052Z,25.00
2022-08-07T14:22:35.858Z,24.98
2022-08-07T14:28:21.087Z,24.78
2022-08-07T14:33:23.407Z,24.46
2022-08-07T14:38:39.306Z,24.22
2022-08-07T14:44:15.671Z,23.99
2022-08-07T14:49:57.187Z,23.93
2022-08-07T14:55:17.437Z,23.87
2022-08-07T15:00:48.809Z,23.96
2022-08-07T15:06:09.050Z,23.92
2022-08-07T15:12:08.231Z,24.02
2022-08-07T15:17:20.338Z,24.02
2022-08-07T15:22:51.602Z,23.84
2022-08-07T15:28:33.093Z,23.78
2022-08-07T15:33:44.566Z,24.19
2022-08-07T15:44:32.574Z,29.72
2022-08-07T15:56:02.125Z,30.62
2022-08-07T16:01:03.063Z,29.99
2022-08-07T16:06:10.023Z,28.44
2022-08-07T16:11:40.142Z,27.71
2022-08-07T16:18:02.313Z,28.64
2022-08-07T16:23:13.546Z,30.16
2022-08-07T16:30:08.755Z,30.26
2022-08-07T16:34:39.282Z,28.71
2022-08-07T16:40:37.232Z,27.31
2022-08-07T16:47:13.042Z,26.07
2022-08-07T16:52:51.513Z,27.00
2022-08-07T16:58:20.886Z,27.83
2022-08-07T17:04:00.370Z,28.08
2022-08-07T17:10:05.231Z,28.28
2022-08-07T17:15:04.599Z,28.37
2022-08-07T17:20:40.541Z,27.54
2022-08-07T17:26:24.249Z,26.14
2022-08-07T17:32:02.331Z,24.92
2022-08-07T17:38:11.364Z,24.00
2022-08-07T17:44:03.256Z,23.19
2022-08-07T17:50:04.052Z,22.52
2022-08-07T17:55:55.757Z,21.88
2022-08-07T18:01:36.765Z,21.37
2022-08-07T18:07:20.747Z,20.94
2022-08-07T18:13:16.403Z,20.60
2022-08-07T18:21:03.958Z,20.27
2022-08-07T18:25:23.885Z,19.98
2022-08-07T18:31:07.535Z,19.65
2022-08-07T18:36:41.093Z,19.37
2022-08-07T18:42:45.909Z,19.13
2022-08-07T18:50:31.880Z,18.88
2022-08-07T18:55:40.922Z,18.61
2022-08-07T19:02:18.107Z,18.41
2022-08-07T19:07:36.086Z,18.16
2022-08-07T19:13:44.379Z,17.97
2022-08-07T19:19:31.831Z,17.81
2022-08-07T19:24:52.197Z,17.64
2022-08-07T19:31:00.765Z,17.52
2022-08-07T19:35:33.428Z,17.40
2022-08-07T19:40:49.375Z,17.28
2022-08-07T19:46:07.575Z,17.14
2022-08-07T19:51:50.729Z,17.00
2022-08-07T19:57:51.608Z,16.85
2022-08-07T20:02:52.300Z,16.75
2022-08-07T20:08:15.455Z,16.63
2022-08-07T20:13:56.734Z,16.53
2022-08-07T20:19:10.521Z,16.43
2022-08-07T20:24:28.909Z,16.35
2022-08-07T20:29:58.400Z,16.23
2022-08-07T20:35:16.075Z,16.15
2022-08-07T20:40:31.421Z,16.09
2022-08-07T20:46:27.696Z,16.03
2022-08-07T20:51:09.374Z,16.02
2022-08-07T20:56:20.207Z,16.04
2022-08-07T21:01:45.829Z,16.88
2022-08-07T21:07:03.995Z,18.92
2022-08-07T21:12:15.081Z,19.21
2022-08-07T21:18:03.984Z,18.08
2022-08-07T21:22:55.052Z,17.35
2022-08-07T21:28:49.324Z,16.98
2022-08-07T21:34:08.851Z,16.64
2022-08-07T21:39:47.300Z,16.42
2022-08-07T21:46:08.776Z,16.25
2022-08-07T21:50:54.487Z,16.97
2022-08-07T21:56:35.862Z,19.63
2022-08-07T22:02:11.050Z,19.98
2022-08-07T22:07:35.736Z,18.38
2022-08-07T22:13:03.829Z,17.53
2022-08-07T22:18:26.314Z,17.02
2022-08-07T22:24:09.855Z,16.63
2022-08-07T22:29:48.136Z,16.33
2022-08-07T22:35:00.738Z,16.10
2022-08-07T22:40:21.511Z,15.93
2022-08-07T22:46:21.185Z,16.89
2022-08-07T22:51:43.659Z,19.41
2022-08-07T22:57:33.548Z,19.72
2022-08-07T23:03:58.919Z,18.08
2022-08-07T23:10:03.462Z,17.16
2022-08-07T23:16:05.401Z,16.64
2022-08-07T23:21:16.262Z,16.23
2022-08-07T23:26:26.671Z,16.98
2022-08-07T23:34:20.332Z,19.41
2022-08-07T23:37:32.041Z,19.77
2022-08-07T23:43:16.974Z,18.10
2022-08-07T23:49:05.460Z,17.05
2022-08-07T23:54:52.118Z,16.30
